This is the latest recevied weather packets stored in our database for station/object DB0OHA-13. If no packets are shown the sender has not sent any weather packets the latest 1 day(s).
| Time | Temp. | Humidity | Pressure | Rain* | Wind** | Luminosity | Snow |
|---|---|---|---|---|---|---|---|
| 1777983073 | 18.33° C | 41% | 1008.1 hPa | 0 mm | 0.45 m/s, 243° | 346 W/m² | - |
| 1777982473 | 18.33° C | 34% | 1008 hPa | 0 mm | 0 m/s | 369 W/m² | - |
| 1777981873 | 18.89° C | 32% | 1008.3 hPa | 0 mm | 0 m/s | 446 W/m² | - |
| 1777981273 | 18.89° C | 24% | 1008.3 hPa | 0 mm | 0.45 m/s, 271° | 520 W/m² | - |
| 1777980673 | 18.33° C | 25% | 1008.3 hPa | 0 mm | 0 m/s | 460 W/m² | - |
| 1777980072 | 18.33° C | 22% | 1008.4 hPa | 0 mm | 0.89 m/s, 273° | 493 W/m² | - |
| 1777978872 | 18.33° C | 29% | 1008.7 hPa | 0 mm | 0.89 m/s, 273° | 556 W/m² | - |
| 1777978272 | 18.33° C | 16% | 1008.7 hPa | 0 mm | 0.45 m/s, 286° | 577 W/m² | - |
| 1777977672 | 17.78° C | 10% | 1008.8 hPa | 0 mm | 0.45 m/s, 30° | 685 W/m² | - |
| 1777977072 | 17.78° C | 1% | 1008.9 hPa | 0 mm | 0.45 m/s, 38° | 603 W/m² | - |
| 1777976472 | 17.22° C | 1% | 1008.9 hPa | 0 mm | 0.45 m/s, 38° | 555 W/m² | - |
| 1777975872 | 16.67° C | 1% | 1009 hPa | 0 mm | 0.45 m/s, 38° | 475 W/m² | - |
| 1777975272 | 16.11° C | 1% | 1009.1 hPa | 0 mm | 0 m/s | 327 W/m² | - |
| 1777974672 | 16.11° C | 1% | 1009.1 hPa | 0 mm | 0 m/s | 265 W/m² | - |
| 1777974071 | 15.56° C | 1% | 1009 hPa | 0 mm | 0 m/s | 256 W/m² | - |
| 1777973471 | 15.56° C | 1% | 1009.1 hPa | 0 mm | 0.45 m/s, 38° | 281 W/m² | - |
| 1777972871 | 15° C | 1% | 1008.9 hPa | 0 mm | 0 m/s | 282 W/m² | - |
| 1777972271 | 14.44° C | 1% | 1008.9 hPa | 0 mm | 0 m/s | 302 W/m² | - |
| 1777971671 | 15° C | 1% | 1009.1 hPa | 0 mm | 0 m/s | 277 W/m² | - |
| 1777971071 | 14.44° C | 1% | 1009.1 hPa | 0 mm | 0 m/s | 245 W/m² | - |
| 1777970471 | 14.44° C | 1% | 1009.2 hPa | 0 mm | 0 m/s | 215 W/m² | - |
| 1777969871 | 14.44° C | 1% | 1009.2 hPa | 0 mm | 0.45 m/s, 38° | 219 W/m² | - |
| 1777969271 | 14.44° C | 1% | 1009.2 hPa | 0 mm | 0 m/s | 191 W/m² | - |
| 1777968670 | 13.89° C | 1% | 1009 hPa | 0 mm | 0 m/s | 187 W/m² | - |
| 1777968070 | 13.89° C | 1% | 1009.2 hPa | 0 mm | 0 m/s | 164 W/m² | - |
* Rain latest hour (hover to see other rain measurements)
** Current wind speed in m/s (hover to see current wind gust speed)